Time,TemperatureF,DewpointF,PressureIn,WindDirection,WindDirectionDegrees,WindSpeedMPH,WindSpeedGustMPH,Humidity,HourlyPrecipIn,Conditions,Clouds,dailyrainin,SoftwareType,DateUTC
2013-02-26 00:05:00,48.6,17.7,29.96,West,275,13.0,17.0,29,0.00,,,0.00,Wunderground v.1.13,2013-02-26 08:05:00,
2013-02-26 00:11:00,48.5,16.8,29.96,West,267,13.0,16.0,28,0.00,,,0.00,Wunderground v.1.13,2013-02-26 08:11:00,
2013-02-26 00:17:00,48.9,17.2,29.95,West,267,14.0,19.0,28,0.00,,,0.00,Wunderground v.1.13,2013-02-26 08:17:00,
2013-02-26 00:23:00,48.9,17.2,29.95,WSW,250,12.0,14.0,28,0.00,,,0.00,Wunderground v.1.13,2013-02-26 08:23:00,
2013-02-26 00:29:00,48.9,17.2,29.95,West,272,9.0,12.0,28,0.00,,,0.00,Wunderground v.1.13,2013-02-26 08:29:00,
2013-02-26 00:35:00,48.6,17.7,29.95,WNW,287,7.0,7.0,29,0.00,,,0.00,Wunderground v.1.13,2013-02-26 08:35:00,
2013-02-26 00:41:00,48.3,18.3,29.95,West,267,4.0,5.0,30,0.00,,,0.00,Wunderground v.1.13,2013-02-26 08:41:00,
2013-02-26 00:47:00,48.2,16.6,29.97,West,281,2.0,6.0,28,0.00,,,0.00,Wunderground v.1.13,2013-02-26 08:47:00,
2013-02-26 00:53:00,48.3,17.5,29.97,SW,224,3.0,6.0,29,0.00,,,0.00,Wunderground v.1.13,2013-02-26 08:53:00,
2013-02-26 00:59:00,48.2,17.4,29.97,SW,216,2.0,3.0,29,0.00,,,0.00,Wunderground v.1.13,2013-02-26 08:59:00,
2013-02-26 01:05:00,48.2,16.6,29.97,SW,233,2.0,6.0,28,0.00,,,0.00,Wunderground v.1.13,2013-02-26 09:05:00,
2013-02-26 01:11:00,48.2,15.7,29.97,WNW,289,5.0,7.0,27,0.00,,,0.00,Wunderground v.1.13,2013-02-26 09:11:00,
2013-02-26 01:17:00,48.0,16.4,29.96,West,271,8.0,13.0,28,0.00,,,0.00,Wunderground v.1.13,2013-02-26 09:17:00,
2013-02-26 01:23:00,48.0,16.4,29.96,WNW,288,9.0,13.0,28,0.00,,,0.00,Wunderground v.1.13,2013-02-26 09:23:00,
2013-02-26 01:29:00,48.0,17.2,29.95,West,277,10.0,14.0,29,0.00,,,0.00,Wunderground v.1.13,2013-02-26 09:29:00,
2013-02-26 01:35:00,47.3,18.1,29.95,West,267,8.0,8.0,31,0.00,,,0.00,Wunderground v.1.13,2013-02-26 09:35:00,
2013-02-26 01:41:00,47.4,18.2,29.95,SW,229,5.0,6.0,31,0.00,,,0.00,Wunderground v.1.13,2013-02-26 09:41:00,
2013-02-26 01:47:00,46.7,20.5,29.96,SE,137,3.0,6.0,35,0.00,,,0.00,Wunderground v.1.13,2013-02-26 09:47:00,
2013-02-26 01:53:00,46.0,19.8,29.96,SE,145,5.0,7.0,35,0.00,,,0.00,Wunderground v.1.13,2013-02-26 09:53:00,
2013-02-26 01:59:00,45.8,18.3,29.96,SW,226,3.0,5.0,33,0.00,,,0.00,Wunderground v.1.13,2013-02-26 09:59:00,
2013-02-26 02:05:00,46.1,17.8,29.96,SSW,203,2.0,2.0,32,0.00,,,0.00,Wunderground v.1.13,2013-02-26 10:05:00,
2013-02-26 02:11:00,46.7,17.6,29.96,WSW,257,5.0,8.0,31,0.00,,,0.00,Wunderground v.1.13,2013-02-26 10:11:00,
2013-02-26 02:17:00,47.4,18.2,29.95,SSW,198,6.0,6.0,31,0.00,,,0.00,Wunderground v.1.13,2013-02-26 10:17:00,
2013-02-26 02:23:00,47.1,18.7,29.95,East,100,4.0,6.0,32,0.00,,,0.00,Wunderground v.1.13,2013-02-26 10:23:00,
2013-02-26 02:29:00,46.4,20.9,29.95,ESE,109,1.0,3.0,36,0.00,,,0.00,Wunderground v.1.13,2013-02-26 10:29:00,
2013-02-26 02:35:00,45.5,20.1,29.96,ESE,123,1.0,1.0,36,0.00,,,0.00,Wunderground v.1.13,2013-02-26 10:35:00,
2013-02-26 02:41:00,44.8,20.1,29.96,NNE,30,1.0,2.0,37,0.00,,,0.00,Wunderground v.1.13,2013-02-26 10:41:00,
2013-02-26 02:47:00,44.3,20.3,29.95,ESE,117,1.0,2.0,38,0.00,,,0.00,Wunderground v.1.13,2013-02-26 10:47:00,
2013-02-26 02:53:00,43.9,21.1,29.95,ESE,112,1.0,3.0,40,0.00,,,0.00,Wunderground v.1.13,2013-02-26 10:53:00,
2013-02-26 02:59:00,43.6,21.4,29.95,SE,127,1.0,2.0,41,0.00,,,0.00,Wunderground v.1.13,2013-02-26 10:59:00,
2013-02-26 03:05:00,43.2,21.6,29.96,SE,127,1.0,1.0,42,0.00,,,0.00,Wunderground v.1.13,2013-02-26 11:05:00,
2013-02-26 03:11:00,43.1,21.5,29.96,SE,127,0.0,0.0,42,0.00,,,0.00,Wunderground v.1.13,2013-02-26 11:11:00,
2013-02-26 03:17:00,42.6,21.1,30.01,NE,47,0.0,2.0,42,0.00,,,0.00,Wunderground v.1.13,2013-02-26 11:17:00,
2013-02-26 03:23:00,42.3,20.8,30.01,NE,37,1.0,1.0,42,0.00,,,0.00,Wunderground v.1.13,2013-02-26 11:23:00,
2013-02-26 03:29:00,41.9,21.0,30.01,ESE,110,1.0,2.0,43,0.00,,,0.00,Wunderground v.1.13,2013-02-26 11:29:00,
2013-02-26 03:35:00,42.6,20.5,30.02,ESE,107,2.0,2.0,41,0.00,,,0.00,Wunderground v.1.13,2013-02-26 11:35:00,
2013-02-26 03:41:00,43.3,20.6,30.02,East,89,1.0,5.0,40,0.00,,,0.00,Wunderground v.1.13,2013-02-26 11:41:00,
2013-02-26 03:47:00,43.5,21.3,30.02,SW,233,2.0,2.0,41,0.00,,,0.00,Wunderground v.1.13,2013-02-26 11:47:00,
2013-02-26 03:53:00,44.3,22.1,30.02,NW,312,2.0,7.0,41,0.00,,,0.00,Wunderground v.1.13,2013-02-26 11:53:00,
2013-02-26 03:59:00,46.4,21.5,30.02,NW,311,7.0,18.0,37,0.00,,,0.00,Wunderground v.1.13,2013-02-26 11:59:00,
2013-02-26 04:04:00,47.1,22.1,30.00,WNW,291,11.0,14.0,37,0.00,,,0.00,Wunderground v.1.13,2013-02-26 12:04:00,
2013-02-26 04:10:00,47.6,21.3,30.00,WSW,240,9.0,9.0,35,0.00,,,0.00,Wunderground v.1.13,2013-02-26 12:10:00,
2013-02-26 04:16:00,47.4,23.0,29.97,NW,309,8.0,8.0,38,0.00,,,0.00,Wunderground v.1.13,2013-02-26 12:16:00,
2013-02-26 04:22:00,47.1,22.8,29.97,NW,305,6.0,7.0,38,0.00,,,0.00,Wunderground v.1.13,2013-02-26 12:22:00,
2013-02-26 04:28:00,46.8,23.1,29.97,NNW,330,4.0,7.0,39,0.00,,,0.00,Wunderground v.1.13,2013-02-26 12:28:00,
2013-02-26 04:34:00,46.8,23.1,29.98,NW,316,4.0,9.0,39,0.00,,,0.00,Wunderground v.1.13,2013-02-26 12:34:00,
2013-02-26 04:40:00,46.5,21.6,29.98,West,265,4.0,4.0,37,0.00,,,0.00,Wunderground v.1.13,2013-02-26 12:40:00,
2013-02-26 04:46:00,46.2,23.2,29.98,WNW,302,4.0,6.0,40,0.00,,,0.00,Wunderground v.1.13,2013-02-26 12:46:00,
2013-02-26 04:51:00,46.1,23.1,29.98,NW,306,3.0,6.0,40,0.00,,,0.00,Wunderground v.1.13,2013-02-26 12:51:00,
2013-02-26 04:57:00,45.8,23.4,29.98,NNW,332,2.0,5.0,41,0.00,,,0.00,Wunderground v.1.13,2013-02-26 12:57:00,
2013-02-26 05:03:00,45.2,23.4,29.98,NNW,332,1.0,21.0,42,0.00,,,0.00,Wunderground v.1.13,2013-02-26 13:03:00,
2013-02-26 05:09:00,44.6,23.5,29.98,NNW,332,1.0,1.0,43,0.00,,,0.00,Wunderground v.1.13,2013-02-26 13:09:00,
2013-02-26 05:15:00,43.9,22.8,30.00,NNW,332,0.0,1.0,43,0.00,,,0.00,Wunderground v.1.13,2013-02-26 13:15:00,
2013-02-26 05:21:00,42.6,22.7,30.00,NNW,329,0.0,0.0,45,0.00,,,0.00,Wunderground v.1.13,2013-02-26 13:21:00,
2013-02-26 05:26:00,41.8,22.5,30.00,NNW,329,0.0,0.0,46,0.00,,,0.00,Wunderground v.1.13,2013-02-26 13:26:00,
2013-02-26 05:31:00,41.1,22.4,30.00,NNW,329,0.0,0.0,47,0.00,,,0.00,Wunderground v.1.13,2013-02-26 13:31:00,
2013-02-26 05:37:00,40.3,22.1,30.00,NNW,329,0.0,0.0,48,0.00,,,0.00,Wunderground v.1.13,2013-02-26 13:37:00,
2013-02-26 05:43:00,40.1,22.4,30.00,NNW,329,0.0,2.0,49,0.00,,,0.00,Wunderground v.1.13,2013-02-26 13:43:00,
2013-02-26 05:49:00,39.9,22.3,30.01,NNW,329,0.0,1.0,49,0.00,,,0.00,Wunderground v.1.13,2013-02-26 13:49:00,
2013-02-26 05:55:00,39.8,21.7,30.01,NW,308,1.0,1.0,48,0.00,,,0.00,Wunderground v.1.13,2013-02-26 13:55:00,
2013-02-26 06:00:00,39.3,21.2,30.01,NW,308,0.0,0.0,48,0.00,,,0.00,Wunderground v.1.13,2013-02-26 14:00:00,
2013-02-26 06:05:00,38.9,21.3,30.01,NW,308,0.0,0.0,49,0.00,,,0.00,Wunderground v.1.13,2013-02-26 14:05:00,
2013-02-26 06:11:00,38.2,21.6,30.01,NW,308,0.0,0.0,51,0.00,,,0.00,Wunderground v.1.13,2013-02-26 14:11:00,
2013-02-26 06:17:00,37.6,22.4,30.02,WNW,301,0.0,1.0,54,0.00,,,0.00,Wunderground v.1.13,2013-02-26 14:17:00,
2013-02-26 06:23:00,36.9,21.8,30.02,SW,230,0.0,1.0,54,0.00,,,0.00,Wunderground v.1.13,2013-02-26 14:23:00,
2013-02-26 06:29:00,36.5,22.7,30.03,SW,232,1.0,5.0,57,0.00,,,0.00,Wunderground v.1.13,2013-02-26 14:29:00,
2013-02-26 06:34:00,36.5,22.7,30.03,SW,234,2.0,3.0,57,0.00,,,0.00,Wunderground v.1.13,2013-02-26 14:34:00,
2013-02-26 06:40:00,36.8,23.4,30.03,WSW,246,2.0,2.0,58,0.00,,,0.00,Wunderground v.1.13,2013-02-26 14:40:00,
2013-02-26 06:46:00,37.5,23.2,30.03,WSW,246,1.0,2.0,56,0.00,,,0.00,Wunderground v.1.13,2013-02-26 14:46:00,
2013-02-26 06:52:00,37.8,23.5,30.03,WSW,246,1.0,1.0,56,0.00,,,0.00,Wunderground v.1.13,2013-02-26 14:52:00,
2013-02-26 06:57:00,37.9,23.6,30.03,WSW,246,1.0,1.0,56,0.00,,,0.00,Wunderground v.1.13,2013-02-26 14:57:00,
2013-02-26 07:03:00,38.2,23.9,30.04,WSW,246,0.0,3.0,56,0.00,,,0.00,Wunderground v.1.13,2013-02-26 15:03:00,
2013-02-26 07:08:00,38.6,23.8,30.04,WSW,246,0.0,0.0,55,0.00,,,0.00,Wunderground v.1.13,2013-02-26 15:08:00,
2013-02-26 07:14:00,38.9,23.7,30.04,WSW,246,0.0,1.0,54,0.00,,,0.00,Wunderground v.1.13,2013-02-26 15:14:00,
2013-02-26 07:20:00,39.3,24.0,30.04,WSW,246,0.0,0.0,54,0.00,,,0.00,Wunderground v.1.13,2013-02-26 15:20:00,
2013-02-26 07:26:00,40.8,25.9,30.04,NNW,339,1.0,3.0,55,0.00,,,0.00,Wunderground v.1.13,2013-02-26 15:26:00,
2013-02-26 07:32:00,42.9,26.5,30.04,North,359,2.0,2.0,52,0.00,,,0.00,Wunderground v.1.13,2013-02-26 15:32:00,
2013-02-26 07:38:00,45.1,26.6,30.04,NNW,343,3.0,6.0,48,0.00,,,0.00,Wunderground v.1.13,2013-02-26 15:38:00,
2013-02-26 07:44:00,47.0,26.7,30.04,North,352,3.0,6.0,45,0.00,,,0.00,Wunderground v.1.13,2013-02-26 15:44:00,
2013-02-26 07:49:00,48.0,26.5,30.03,NNE,24,4.0,6.0,43,0.00,,,0.00,Wunderground v.1.13,2013-02-26 15:49:00,
2013-02-26 07:55:00,48.9,25.6,30.03,NNE,16,4.0,4.0,40,0.00,,,0.00,Wunderground v.1.13,2013-02-26 15:55:00,
2013-02-26 08:01:00,49.4,24.2,30.03,NNE,16,2.0,3.0,37,0.00,,,0.00,Wunderground v.1.13,2013-02-26 16:01:00,
2013-02-26 08:07:00,48.8,24.3,30.03,ENE,73,1.0,2.0,38,0.00,,,0.00,Wunderground v.1.13,2013-02-26 16:07:00,
2013-02-26 08:13:00,47.6,23.8,30.03,East,85,1.0,3.0,39,0.00,,,0.00,Wunderground v.1.13,2013-02-26 16:13:00,
2013-02-26 08:18:00,47.1,23.4,30.04,East,86,1.0,1.0,39,0.00,,,0.00,Wunderground v.1.13,2013-02-26 16:18:00,
2013-02-26 08:24:00,47.3,22.9,30.04,ESE,104,1.0,4.0,38,0.00,,,0.00,Wunderground v.1.13,2013-02-26 16:24:00,
2013-02-26 08:30:00,47.3,23.6,30.05,ESE,109,2.0,2.0,39,0.00,,,0.00,Wunderground v.1.13,2013-02-26 16:30:00,
2013-02-26 08:35:00,47.4,23.7,30.05,East,100,1.0,2.0,39,0.00,,,0.00,Wunderground v.1.13,2013-02-26 16:35:00,
2013-02-26 08:40:00,47.3,23.6,30.05,East,95,2.0,6.0,39,0.00,,,0.00,Wunderground v.1.13,2013-02-26 16:40:00,
2013-02-26 08:46:00,47.0,23.9,30.05,East,93,3.0,6.0,40,0.00,,,0.00,Wunderground v.1.13,2013-02-26 16:46:00,
2013-02-26 08:52:00,47.4,23.7,30.05,East,92,4.0,7.0,39,0.00,,,0.00,Wunderground v.1.13,2013-02-26 16:52:00,
2013-02-26 08:58:00,48.5,24.0,30.05,ESE,102,4.0,7.0,38,0.00,,,0.00,Wunderground v.1.13,2013-02-26 16:58:00,
2013-02-26 09:04:00,49.2,24.6,30.05,NE,48,4.0,8.0,38,0.00,,,0.00,Wunderground v.1.13,2013-02-26 17:04:00,
2013-02-26 09:09:00,49.9,23.3,30.05,ESE,110,4.0,6.0,35,0.00,,,0.00,Wunderground v.1.13,2013-02-26 17:09:00,
2013-02-26 09:15:00,50.2,24.2,30.06,East,80,4.0,4.0,36,0.00,,,0.00,Wunderground v.1.13,2013-02-26 17:15:00,
2013-02-26 09:21:00,50.5,23.8,30.06,NE,45,3.0,4.0,35,0.00,,,0.00,Wunderground v.1.13,2013-02-26 17:21:00,
2013-02-26 09:27:00,51.3,23.1,30.06,ESE,113,4.0,6.0,33,0.00,,,0.00,Wunderground v.1.13,2013-02-26 17:27:00,
2013-02-26 09:33:00,52.0,23.8,30.06,East,80,3.0,3.0,33,0.00,,,0.00,Wunderground v.1.13,2013-02-26 17:33:00,
2013-02-26 09:39:00,52.6,23.5,30.06,ENE,71,3.0,6.0,32,0.00,,,0.00,Wunderground v.1.13,2013-02-26 17:39:00,
2013-02-26 09:45:00,53.3,24.2,30.06,NE,44,2.0,2.0,32,0.00,,,0.00,Wunderground v.1.13,2013-02-26 17:45:00,
2013-02-26 09:51:00,53.8,24.6,30.06,East,100,3.0,7.0,32,0.00,,,0.00,Wunderground v.1.13,2013-02-26 17:51:00,
2013-02-26 09:57:00,54.1,23.3,30.06,NNE,20,3.0,3.0,30,0.00,,,0.00,Wunderground v.1.13,2013-02-26 17:57:00,
2013-02-26 10:03:00,54.8,22.3,30.06,East,88,2.0,8.0,28,0.00,,,0.00,Wunderground v.1.13,2013-02-26 18:03:00,
2013-02-26 10:08:00,55.1,22.5,30.06,ESE,110,3.0,5.0,28,0.00,,,0.00,Wunderground v.1.13,2013-02-26 18:08:00,
2013-02-26 10:14:00,55.4,22.8,30.06,ENE,69,3.0,6.0,28,0.00,,,0.00,Wunderground v.1.13,2013-02-26 18:14:00,
2013-02-26 10:20:00,56.2,23.5,30.06,North,11,2.0,5.0,28,0.00,,,0.00,Wunderground v.1.13,2013-02-26 18:20:00,
2013-02-26 10:26:00,56.5,23.7,30.06,NE,44,2.0,4.0,28,0.00,,,0.00,Wunderground v.1.13,2013-02-26 18:26:00,
2013-02-26 10:32:00,57.2,21.6,30.05,ESE,106,2.0,5.0,25,0.00,,,0.00,Wunderground v.1.13,2013-02-26 18:32:00,
2013-02-26 10:38:00,58.0,17.1,30.05,NNE,16,3.0,5.0,20,0.00,,,0.00,Wunderground v.1.13,2013-02-26 18:38:00,
2013-02-26 10:44:00,58.3,17.3,30.05,NE,38,5.0,5.0,20,0.00,,,0.00,Wunderground v.1.13,2013-02-26 18:44:00,
2013-02-26 10:49:00,58.4,16.2,30.05,NNE,16,5.0,9.0,19,0.00,,,0.00,Wunderground v.1.13,2013-02-26 18:49:00,
2013-02-26 10:55:00,59.0,15.5,30.05,ENE,78,5.0,8.0,18,0.00,,,0.00,Wunderground v.1.13,2013-02-26 18:55:00,
2013-02-26 11:01:00,59.0,12.8,30.05,NNE,13,5.0,8.0,16,0.00,,,0.00,Wunderground v.1.13,2013-02-26 19:01:00,
2013-02-26 11:07:00,59.0,14.2,30.05,ENE,64,6.0,8.0,17,0.00,,,0.00,Wunderground v.1.13,2013-02-26 19:07:00,
2013-02-26 11:13:00,59.5,13.2,30.05,NNE,31,5.0,8.0,16,0.00,,,0.00,Wunderground v.1.13,2013-02-26 19:13:00,
2013-02-26 11:19:00,59.5,13.2,30.04,NNE,18,6.0,8.0,16,0.00,,,0.00,Wunderground v.1.13,2013-02-26 19:19:00,
2013-02-26 11:25:00,59.6,13.3,30.04,East,95,5.0,7.0,16,0.00,,,0.00,Wunderground v.1.13,2013-02-26 19:25:00,
2013-02-26 11:30:00,60.2,12.3,30.03,NE,45,4.0,4.0,15,0.00,,,0.00,Wunderground v.1.13,2013-02-26 19:30:00,
2013-02-26 11:36:00,60.4,12.5,30.03,NE,35,4.0,6.0,15,0.00,,,0.00,Wunderground v.1.13,2013-02-26 19:36:00,
2013-02-26 11:42:00,60.5,11.0,30.03,NNE,23,5.0,8.0,14,0.00,,,0.00,Wunderground v.1.13,2013-02-26 19:42:00,
2013-02-26 11:48:00,60.5,11.0,30.03,North,4,5.0,6.0,14,0.00,,,0.00,Wunderground v.1.13,2013-02-26 19:48:00,
2013-02-26 11:54:00,60.2,10.7,30.03,East,80,6.0,10.0,14,0.00,,,0.00,Wunderground v.1.13,2013-02-26 19:54:00,
2013-02-26 12:00:00,60.9,11.3,30.02,East,86,5.0,5.0,14,0.00,,,0.00,Wunderground v.1.13,2013-02-26 20:00:00,
2013-02-26 12:05:00,61.3,11.6,30.02,NE,48,4.0,4.0,14,0.00,,,0.00,Wunderground v.1.13,2013-02-26 20:05:00,
2013-02-26 12:11:00,61.5,11.8,30.02,SSE,152,4.0,7.0,14,0.00,,,0.00,Wunderground v.1.13,2013-02-26 20:11:00,
2013-02-26 12:17:00,61.3,11.6,30.01,NE,34,5.0,12.0,14,0.00,,,0.00,Wunderground v.1.13,2013-02-26 20:17:00,
2013-02-26 12:23:00,61.0,11.4,30.01,North,10,6.0,8.0,14,0.00,,,0.00,Wunderground v.1.13,2013-02-26 20:23:00,
2013-02-26 12:29:00,61.0,11.4,30.01,North,8,5.0,9.0,14,0.00,,,0.00,Wunderground v.1.13,2013-02-26 20:29:00,
2013-02-26 12:34:00,60.9,11.3,30.01,ENE,78,6.0,10.0,14,0.00,,,0.00,Wunderground v.1.13,2013-02-26 20:34:00,
2013-02-26 12:40:00,61.8,10.4,30.01,NNE,25,4.0,8.0,13,0.00,,,0.00,Wunderground v.1.13,2013-02-26 20:40:00,
2013-02-26 12:46:00,61.8,10.4,30.00,NE,37,4.0,6.0,13,0.00,,,0.00,Wunderground v.1.13,2013-02-26 20:46:00,
2013-02-26 12:52:00,62.1,10.6,30.00,North,7,5.0,11.0,13,0.00,,,0.00,Wunderground v.1.13,2013-02-26 20:52:00,
2013-02-26 12:58:00,61.6,10.2,30.00,NE,42,6.0,11.0,13,0.00,,,0.00,Wunderground v.1.13,2013-02-26 20:58:00,
2013-02-26 13:04:00,62.0,10.5,30.00,ENE,69,6.0,14.0,13,0.00,,,0.00,Wunderground v.1.13,2013-02-26 21:04:00,
2013-02-26 13:09:00,62.3,10.8,30.00,North,0,4.0,6.0,13,0.00,,,0.00,Wunderground v.1.13,2013-02-26 21:09:00,
2013-02-26 13:15:00,62.6,11.0,30.00,ESE,109,5.0,5.0,13,0.00,,,0.00,Wunderground v.1.13,2013-02-26 21:15:00,
2013-02-26 13:21:00,62.7,11.1,30.00,NE,41,5.0,11.0,13,0.00,,,0.00,Wunderground v.1.13,2013-02-26 21:21:00,
2013-02-26 13:27:00,62.7,11.1,30.00,North,0,5.0,6.0,13,0.00,,,0.00,Wunderground v.1.13,2013-02-26 21:27:00,
2013-02-26 13:33:00,62.4,10.8,29.99,NE,38,4.0,8.0,13,0.00,,,0.00,Wunderground v.1.13,2013-02-26 21:33:00,
2013-02-26 13:38:00,62.4,10.8,29.99,North,0,5.0,7.0,13,0.00,,,0.00,Wunderground v.1.13,2013-02-26 21:38:00,
2013-02-26 13:44:00,61.6,10.2,29.98,East,88,6.0,7.0,13,0.00,,,0.00,Wunderground v.1.13,2013-02-26 21:44:00,
2013-02-26 13:50:00,61.6,10.2,29.98,North,0,5.0,6.0,13,0.00,,,0.00,Wunderground v.1.13,2013-02-26 21:50:00,
2013-02-26 13:56:00,61.6,10.2,29.98,NE,37,5.0,5.0,13,0.00,,,0.00,Wunderground v.1.13,2013-02-26 21:56:00,
2013-02-26 14:02:00,61.6,10.2,29.98,NNE,21,4.0,13.0,13,0.00,,,0.00,Wunderground v.1.13,2013-02-26 22:02:00,
2013-02-26 14:08:00,61.6,10.2,29.98,ENE,64,4.0,4.0,13,0.00,,,0.00,Wunderground v.1.13,2013-02-26 22:08:00,
2013-02-26 14:14:00,61.6,10.2,29.98,North,0,5.0,8.0,13,0.00,,,0.00,Wunderground v.1.13,2013-02-26 22:14:00,
2013-02-26 14:20:00,61.6,10.2,29.99,North,357,8.0,8.0,13,0.00,,,0.00,Wunderground v.1.13,2013-02-26 22:20:00,
2013-02-26 14:25:00,61.6,10.2,29.99,North,357,8.0,8.0,13,0.00,,,0.00,Wunderground v.1.13,2013-02-26 22:25:00,
2013-02-26 14:31:00,-999.9,-99.9,30.02,North,32767,-999.0,0.0,255,-99.99,,,0.00,Wunderground v.1.13,2013-02-26 22:31:00,
2013-02-26 14:37:00,-999.9,-99.9,30.02,North,32767,-999.0,0.0,255,-99.99,,,0.00,Wunderground v.1.13,2013-02-26 22:37:00,
2013-02-26 14:43:00,-999.9,-99.9,30.02,North,32767,-999.0,0.0,255,-99.99,,,0.00,Wunderground v.1.13,2013-02-26 22:43:00,
2013-02-26 14:49:00,-999.9,-99.9,30.02,North,32767,-999.0,0.0,255,-99.99,,,0.00,Wunderground v.1.13,2013-02-26 22:49:00,
2013-02-26 14:55:00,-999.9,-99.9,30.02,North,32767,-999.0,0.0,255,-99.99,,,0.00,Wunderground v.1.13,2013-02-26 22:55:00,
2013-02-26 15:01:00,-999.9,-99.9,30.01,North,32767,-999.0,7.0,255,-99.99,,,0.00,Wunderground v.1.13,2013-02-26 23:01:00,
2013-02-26 15:06:00,-999.9,-99.9,30.01,North,32767,-999.0,0.0,255,-99.99,,,0.00,Wunderground v.1.13,2013-02-26 23:06:00,
2013-02-26 15:12:00,-999.9,-99.9,30.01,North,32767,-999.0,0.0,255,-99.99,,,0.00,Wunderground v.1.13,2013-02-26 23:12:00,
2013-02-26 15:18:00,-999.9,-99.9,30.00,North,32767,-999.0,0.0,255,-99.99,,,0.00,Wunderground v.1.13,2013-02-26 23:18:00,
2013-02-26 15:24:00,-999.9,-99.9,30.00,North,32767,-999.0,0.0,255,-99.99,,,0.00,Wunderground v.1.13,2013-02-26 23:24:00,
2013-02-26 15:30:00,-999.9,-99.9,30.00,North,32767,-999.0,0.0,255,-99.99,,,0.00,Wunderground v.1.13,2013-02-26 23:30:00,
2013-02-26 15:36:00,-999.9,-99.9,30.00,North,32767,-999.0,0.0,255,-99.99,,,0.00,Wunderground v.1.13,2013-02-26 23:36:00,
2013-02-26 15:42:00,-999.9,-99.9,30.00,North,32767,-999.0,0.0,255,-99.99,,,0.00,Wunderground v.1.13,2013-02-26 23:42:00,
2013-02-26 15:48:00,-999.9,-99.9,30.00,North,32767,-999.0,0.0,255,-99.99,,,0.00,Wunderground v.1.13,2013-02-26 23:48:00,
2013-02-26 15:54:00,-999.9,-99.9,30.00,North,32767,-999.0,0.0,255,-99.99,,,0.00,Wunderground v.1.13,2013-02-26 23:54:00,
2013-02-26 16:00:00,-999.9,-99.9,30.00,North,32767,-999.0,0.0,255,-99.99,,,0.00,Wunderground v.1.13,2013-02-27 00:00:00,
2013-02-26 16:05:00,-999.9,-99.9,30.00,North,32767,-999.0,0.0,255,-99.99,,,0.00,Wunderground v.1.13,2013-02-27 00:05:00,
2013-02-26 16:11:00,-999.9,-99.9,30.00,North,32767,-999.0,0.0,255,-99.99,,,0.00,Wunderground v.1.13,2013-02-27 00:11:00,
2013-02-26 16:17:00,-999.9,-99.9,30.01,North,32767,-999.0,0.0,255,-99.99,,,0.00,Wunderground v.1.13,2013-02-27 00:17:00,
2013-02-26 16:23:00,-999.9,-99.9,30.01,North,32767,-999.0,0.0,255,-99.99,,,0.00,Wunderground v.1.13,2013-02-27 00:23:00,
2013-02-26 16:29:00,-999.9,-99.9,30.01,North,32767,-999.0,0.0,255,-99.99,,,0.00,Wunderground v.1.13,2013-02-27 00:29:00,
2013-02-26 16:35:00,-999.9,-99.9,30.00,North,32767,-999.0,0.0,255,-99.99,,,0.00,Wunderground v.1.13,2013-02-27 00:35:00,
2013-02-26 16:41:00,-999.9,-99.9,30.00,North,32767,-999.0,0.0,255,-99.99,,,0.00,Wunderground v.1.13,2013-02-27 00:41:00,
2013-02-26 16:46:00,-999.9,-99.9,30.00,ESE,104,6.0,6.0,255,-99.99,,,0.00,Wunderground v.1.13,2013-02-27 00:46:00,
2013-02-26 16:52:00,-999.9,-99.9,30.00,North,359,0.0,5.0,255,0.00,,,0.00,Wunderground v.1.13,2013-02-27 00:52:00,
2013-02-26 16:58:00,-999.9,-99.9,30.00,ENE,66,1.0,1.0,255,0.00,,,0.00,Wunderground v.1.13,2013-02-27 00:58:00,
2013-02-26 17:04:00,-999.9,-99.9,30.00,ENE,58,2.0,5.0,255,0.00,,,0.00,Wunderground v.1.13,2013-02-27 01:04:00,
2013-02-26 17:09:00,-999.9,-99.9,30.00,NE,48,1.0,2.0,255,0.00,,,0.00,Wunderground v.1.13,2013-02-27 01:09:00,
2013-02-26 17:15:00,-999.9,-99.9,30.04,NE,38,2.0,2.0,255,0.00,,,0.00,Wunderground v.1.13,2013-02-27 01:15:00,
2013-02-26 17:21:00,62.4,7.1,30.04,NE,54,2.0,2.0,11,0.00,,,0.00,Wunderground v.1.13,2013-02-27 01:21:00,
2013-02-26 17:27:00,61.5,8.3,30.04,NE,35,2.0,2.0,12,0.00,,,0.00,Wunderground v.1.13,2013-02-27 01:27:00,
2013-02-26 17:33:00,60.9,7.9,30.00,NNE,32,1.0,1.0,12,0.00,,,0.00,Wunderground v.1.13,2013-02-27 01:33:00,
2013-02-26 17:39:00,60.5,7.5,30.00,ENE,76,2.0,5.0,12,0.00,,,0.00,Wunderground v.1.13,2013-02-27 01:39:00,
2013-02-26 17:45:00,60.1,7.2,30.01,ENE,69,1.0,1.0,12,0.00,,,0.00,Wunderground v.1.13,2013-02-27 01:45:00,
2013-02-26 17:51:00,59.5,6.8,30.01,NE,47,1.0,2.0,12,0.00,,,0.00,Wunderground v.1.13,2013-02-27 01:51:00,
2013-02-26 17:57:00,59.0,6.4,30.01,NE,49,1.0,1.0,12,0.00,,,0.00,Wunderground v.1.13,2013-02-27 01:57:00,
2013-02-26 18:03:00,58.4,5.9,30.01,NE,51,0.0,5.0,12,0.00,,,0.00,Wunderground v.1.13,2013-02-27 02:03:00,
2013-02-26 18:09:00,57.8,5.4,30.01,ENE,71,1.0,1.0,12,0.00,,,0.00,Wunderground v.1.13,2013-02-27 02:09:00,
2013-02-26 18:15:00,57.2,6.7,30.03,ENE,61,0.0,0.0,13,0.00,,,0.00,Wunderground v.1.13,2013-02-27 02:15:00,
2013-02-26 18:21:00,56.7,6.3,30.03,ENE,59,1.0,1.0,13,0.00,,,0.00,Wunderground v.1.13,2013-02-27 02:21:00,
2013-02-26 18:26:00,56.3,6.0,30.03,NE,55,1.0,1.0,13,0.00,,,0.00,Wunderground v.1.13,2013-02-27 02:26:00,
2013-02-26 18:32:00,55.7,5.5,30.04,NNE,25,1.0,1.0,13,0.00,,,0.00,Wunderground v.1.13,2013-02-27 02:32:00,
2013-02-26 18:38:00,55.3,5.2,30.04,NNE,24,1.0,3.0,13,0.00,,,0.00,Wunderground v.1.13,2013-02-27 02:38:00,
2013-02-26 18:44:00,55.0,5.0,30.04,NNE,25,1.0,2.0,13,0.00,,,0.00,Wunderground v.1.13,2013-02-27 02:44:00,
2013-02-26 18:50:00,54.5,4.6,30.06,NNE,23,1.0,1.0,13,0.00,,,0.00,Wunderground v.1.13,2013-02-27 02:50:00,
2013-02-26 18:56:00,54.2,4.3,30.06,NNE,24,1.0,1.0,13,0.00,,,0.00,Wunderground v.1.13,2013-02-27 02:56:00,
2013-02-26 19:01:00,53.8,4.0,30.06,NNE,24,0.0,1.0,13,0.00,,,0.00,Wunderground v.1.13,2013-02-27 03:01:00,
2013-02-26 19:07:00,53.3,3.6,30.06,NNE,24,1.0,1.0,13,0.00,,,0.00,Wunderground v.1.13,2013-02-27 03:07:00,
2013-02-26 19:12:00,53.1,3.5,30.06,NNE,24,1.0,1.0,13,0.00,,,0.00,Wunderground v.1.13,2013-02-27 03:12:00,
2013-02-26 19:18:00,52.6,4.7,30.04,NNE,25,1.0,1.0,14,0.00,,,0.00,Wunderground v.1.13,2013-02-27 03:18:00,
2013-02-26 19:24:00,52.3,4.4,30.04,NNE,24,1.0,2.0,14,0.00,,,0.00,Wunderground v.1.13,2013-02-27 03:24:00,
2013-02-26 19:30:00,52.0,4.2,30.05,NNE,24,1.0,1.0,14,0.00,,,0.00,Wunderground v.1.13,2013-02-27 03:30:00,
2013-02-26 19:36:00,51.7,3.9,30.05,NNE,23,1.0,2.0,14,0.00,,,0.00,Wunderground v.1.13,2013-02-27 03:36:00,
2013-02-26 19:42:00,51.6,3.9,30.05,NNE,23,1.0,1.0,14,0.00,,,0.00,Wunderground v.1.13,2013-02-27 03:42:00,
2013-02-26 19:47:00,51.4,3.7,30.06,North,11,1.0,3.0,14,0.00,,,0.00,Wunderground v.1.13,2013-02-27 03:47:00,
2013-02-26 19:53:00,51.1,3.5,30.06,North,11,1.0,1.0,14,0.00,,,0.00,Wunderground v.1.13,2013-02-27 03:53:00,
2013-02-26 19:59:00,50.7,3.1,30.07,North,11,0.0,1.0,14,0.00,,,0.00,Wunderground v.1.13,2013-02-27 03:59:00,
2013-02-26 20:05:00,50.1,2.7,30.07,North,11,0.0,1.0,14,0.00,,,0.00,Wunderground v.1.13,2013-02-27 04:05:00,
2013-02-26 20:11:00,49.5,5.1,30.07,NNE,13,0.0,1.0,16,0.00,,,0.00,Wunderground v.1.13,2013-02-27 04:11:00,
2013-02-26 20:17:00,49.1,4.8,30.08,NNE,13,0.0,0.0,16,0.00,,,0.00,Wunderground v.1.13,2013-02-27 04:17:00,
2013-02-26 20:23:00,48.6,2.9,30.08,NNE,13,0.0,1.0,15,0.00,,,0.00,Wunderground v.1.13,2013-02-27 04:23:00,
2013-02-26 20:29:00,48.3,5.4,30.08,NNE,13,1.0,2.0,17,0.00,,,0.00,Wunderground v.1.13,2013-02-27 04:29:00,
2013-02-26 20:35:00,47.7,9.6,30.09,NNW,344,1.0,3.0,21,0.00,,,0.00,Wunderground v.1.13,2013-02-27 04:35:00,
2013-02-26 20:41:00,47.4,9.4,30.09,NNW,342,2.0,2.0,21,0.00,,,0.00,Wunderground v.1.13,2013-02-27 04:41:00,
2013-02-26 20:47:00,47.1,9.1,30.09,NNW,342,1.0,3.0,21,0.00,,,0.00,Wunderground v.1.13,2013-02-27 04:47:00,
2013-02-26 20:52:00,47.3,4.6,30.09,NNW,343,1.0,2.0,17,0.00,,,0.00,Wunderground v.1.13,2013-02-27 04:52:00,
2013-02-26 20:58:00,47.9,2.4,30.09,North,3,2.0,5.0,15,0.00,,,0.00,Wunderground v.1.13,2013-02-27 04:58:00,
2013-02-26 21:00:00,48.3,2.7,30.10,North,0,2.0,2.0,15,0.00,,,0.00,Wunderground v.1.13,2013-02-27 05:00:00,
2013-02-26 21:01:00,48.5,1.4,30.10,North,0,2.0,3.0,14,0.00,,,0.00,Wunderground v.1.13,2013-02-27 05:01:00,
2013-02-26 21:06:00,48.8,5.8,30.10,North,0,2.0,2.0,17,0.00,,,0.00,Wunderground v.1.13,2013-02-27 05:06:00,
2013-02-26 21:08:00,48.6,8.1,30.10,North,0,1.0,2.0,19,0.00,,,0.00,Wunderground v.1.13,2013-02-27 05:08:00,
2013-02-26 21:13:00,48.2,5.3,30.10,North,7,1.0,2.0,17,0.00,,,0.00,Wunderground v.1.13,2013-02-27 05:13:00,
2013-02-26 21:19:00,48.8,1.6,30.09,North,3,2.0,5.0,14,0.00,,,0.00,Wunderground v.1.13,2013-02-27 05:19:00,
2013-02-26 21:25:00,49.6,2.3,30.09,North,6,3.0,5.0,14,0.00,,,0.00,Wunderground v.1.13,2013-02-27 05:25:00,
2013-02-26 21:31:00,50.1,2.7,30.09,North,4,3.0,5.0,14,0.00,,,0.00,Wunderground v.1.13,2013-02-27 05:31:00,
2013-02-26 21:37:00,50.4,2.9,30.09,North,4,4.0,4.0,14,0.00,,,0.00,Wunderground v.1.13,2013-02-27 05:37:00,
2013-02-26 21:43:00,50.4,2.9,30.09,North,7,3.0,4.0,14,0.00,,,0.00,Wunderground v.1.13,2013-02-27 05:43:00,
2013-02-26 21:49:00,50.1,4.2,30.09,North,1,2.0,5.0,15,0.00,,,0.00,Wunderground v.1.13,2013-02-27 05:49:00,
2013-02-26 21:55:00,49.8,2.4,30.09,NNE,14,3.0,3.0,14,0.00,,,0.00,Wunderground v.1.13,2013-02-27 05:55:00,
2013-02-26 22:01:00,49.8,2.4,30.09,North,8,4.0,6.0,14,0.00,,,0.00,Wunderground v.1.13,2013-02-27 06:01:00,
2013-02-26 22:05:00,49.8,0.8,30.09,North,10,3.0,3.0,13,0.00,,,0.00,Wunderground v.1.13,2013-02-27 06:05:00,
2013-02-26 22:11:00,49.5,2.2,30.09,North,10,2.0,2.0,14,0.00,,,0.00,Wunderground v.1.13,2013-02-27 06:11:00,
2013-02-26 22:17:00,48.9,1.7,30.09,North,0,1.0,2.0,14,0.00,,,0.00,Wunderground v.1.13,2013-02-27 06:17:00,
2013-02-26 22:23:00,48.6,2.9,30.09,North,1,1.0,1.0,15,0.00,,,0.00,Wunderground v.1.13,2013-02-27 06:23:00,
2013-02-26 22:28:00,48.0,3.9,30.09,North,1,1.0,1.0,16,0.00,,,0.00,Wunderground v.1.13,2013-02-27 06:28:00,
2013-02-26 22:34:00,47.3,3.3,30.10,NNW,342,1.0,2.0,16,0.00,,,0.00,Wunderground v.1.13,2013-02-27 06:34:00,
2013-02-26 22:40:00,47.0,3.0,30.10,North,354,1.0,1.0,16,0.00,,,0.00,Wunderground v.1.13,2013-02-27 06:40:00,
2013-02-26 22:46:00,47.1,3.1,30.11,North,0,2.0,5.0,16,0.00,,,0.00,Wunderground v.1.13,2013-02-27 06:46:00,
2013-02-26 22:52:00,47.0,4.4,30.11,NNW,330,2.0,2.0,17,0.00,,,0.00,Wunderground v.1.13,2013-02-27 06:52:00,
2013-02-26 22:58:00,46.5,3.9,30.11,NNW,344,1.0,2.0,17,0.00,,,0.00,Wunderground v.1.13,2013-02-27 06:58:00,
2013-02-26 23:04:00,45.8,4.6,30.11,NNW,344,1.0,8.0,18,0.00,,,0.00,Wunderground v.1.13,2013-02-27 07:04:00,
2013-02-26 23:09:00,45.2,4.1,30.11,NNW,344,0.0,1.0,18,0.00,,,0.00,Wunderground v.1.13,2013-02-27 07:09:00,
2013-02-26 23:15:00,44.6,3.6,30.11,NNW,343,0.0,0.0,18,0.00,,,0.00,Wunderground v.1.13,2013-02-27 07:15:00,
2013-02-26 23:21:00,44.1,3.2,30.11,NNW,339,0.0,1.0,18,0.00,,,0.00,Wunderground v.1.13,2013-02-27 07:21:00,
2013-02-26 23:27:00,43.6,2.8,30.11,NNW,337,0.0,0.0,18,0.00,,,0.00,Wunderground v.1.13,2013-02-27 07:27:00,
2013-02-26 23:33:00,43.3,1.3,30.12,NNW,337,0.0,3.0,17,0.00,,,0.00,Wunderground v.1.13,2013-02-27 07:33:00,
2013-02-26 23:39:00,44.1,0.7,30.12,NNW,346,2.0,2.0,16,0.00,,,0.00,Wunderground v.1.13,2013-02-27 07:39:00,
2013-02-26 23:45:00,44.5,1.0,30.12,NNW,344,1.0,1.0,16,0.00,,,0.00,Wunderground v.1.13,2013-02-27 07:45:00,
2013-02-26 23:51:00,44.5,2.3,30.12,NNW,346,0.0,0.0,17,0.00,,,0.00,Wunderground v.1.13,2013-02-27 07:51:00,
2013-02-26 23:57:00,44.2,3.3,30.12,NNW,346,0.0,0.0,18,0.00,,,0.00,Wunderground v.1.13,2013-02-27 07:57:00,